Terminal Aerodrome Forecast
Issued by NWS

Home | Current Version | Previous Version | Text Only | Print | Product List | Glossary On
Versions: 1 2 3 4 5 6 7 8 9 10 11 12 13 14 15 16 17
000
FTUS45 KTFX 262300
TAFGTF
TAF
KGTF 262333Z 2700/2724 27020G28KT P6SM SCT080 BKN150
     FM270200 22015KT P6SM SCT100 BKN150
     FM270600 22010KT P6SM SCT150
     FM271700 24020G28KT P6SM SCT120=

USA.gov is the U.S. government's official web portal to all federal, state and local government web resources and services.